sensor_id;sensor_type;location;lat;lon;timestamp;P1;durP1;ratioP1;P2;durP2;ratioP2
23628;SDS011;11991;57.150;-2.134;2023-09-18T00:01:00;0.85;;;0.82;;
23628;SDS011;11991;57.150;-2.134;2023-09-18T00:03:28;0.60;;;0.60;;
23628;SDS011;11991;57.150;-2.134;2023-09-18T00:05:55;1.77;;;0.90;;
23628;SDS011;11991;57.150;-2.134;2023-09-18T00:08:22;1.00;;;0.75;;
23628;SDS011;11991;57.150;-2.134;2023-09-18T00:10:50;0.60;;;0.60;;
23628;SDS011;11991;57.150;-2.134;2023-09-18T00:13:20;1.00;;;0.73;;
23628;SDS011;11991;57.150;-2.134;2023-09-18T00:15:48;1.27;;;0.85;;
23628;SDS011;11991;57.150;-2.134;2023-09-18T00:18:15;0.80;;;0.60;;
23628;SDS011;11991;57.150;-2.134;2023-09-18T00:20:43;0.65;;;0.65;;
23628;SDS011;11991;57.150;-2.134;2023-09-18T00:23:12;1.42;;;1.02;;
23628;SDS011;11991;57.150;-2.134;2023-09-18T00:25:39;1.33;;;0.95;;
23628;SDS011;11991;57.150;-2.134;2023-09-18T00:28:09;0.60;;;0.60;;
23628;SDS011;11991;57.150;-2.134;2023-09-18T00:30:37;1.23;;;0.80;;
23628;SDS011;11991;57.150;-2.134;2023-09-18T00:33:09;1.73;;;0.70;;
23628;SDS011;11991;57.150;-2.134;2023-09-18T00:35:36;1.95;;;1.17;;
23628;SDS011;11991;57.150;-2.134;2023-09-18T00:38:03;1.17;;;0.70;;
23628;SDS011;11991;57.150;-2.134;2023-09-18T00:40:33;1.33;;;0.68;;
23628;SDS011;11991;57.150;-2.134;2023-09-18T00:43:00;0.60;;;0.60;;
23628;SDS011;11991;57.150;-2.134;2023-09-18T00:45:27;1.02;;;0.60;;
23628;SDS011;11991;57.150;-2.134;2023-09-18T00:47:54;1.60;;;0.80;;
23628;SDS011;11991;57.150;-2.134;2023-09-18T00:50:21;1.60;;;0.85;;
23628;SDS011;11991;57.150;-2.134;2023-09-18T00:52:49;0.77;;;0.70;;
23628;SDS011;11991;57.150;-2.134;2023-09-18T00:55:16;0.75;;;0.75;;
23628;SDS011;11991;57.150;-2.134;2023-09-18T00:57:43;0.75;;;0.75;;
23628;SDS011;11991;57.150;-2.134;2023-09-18T01:00:12;2.75;;;1.00;;
23628;SDS011;11991;57.150;-2.134;2023-09-18T01:02:43;4.93;;;1.42;;
23628;SDS011;11991;57.150;-2.134;2023-09-18T01:05:12;2.55;;;1.10;;
23628;SDS011;11991;57.150;-2.134;2023-09-18T01:07:40;1.73;;;0.90;;
23628;SDS011;11991;57.150;-2.134;2023-09-18T01:10:07;1.33;;;0.80;;
23628;SDS011;11991;57.150;-2.134;2023-09-18T01:16:01;1.13;;;0.70;;
23628;SDS011;11991;57.150;-2.134;2023-09-18T01:18:35;1.85;;;0.80;;
23628;SDS011;11991;57.150;-2.134;2023-09-18T01:21:02;1.38;;;1.00;;
23628;SDS011;11991;57.150;-2.134;2023-09-18T01:23:29;0.93;;;0.75;;
23628;SDS011;11991;57.150;-2.134;2023-09-18T01:25:56;1.40;;;0.95;;
23628;SDS011;11991;57.150;-2.134;2023-09-18T01:28:23;1.45;;;0.73;;
23628;SDS011;11991;57.150;-2.134;2023-09-18T01:30:50;1.20;;;0.80;;
23628;SDS011;11991;57.150;-2.134;2023-09-18T01:33:17;0.90;;;0.80;;
23628;SDS011;11991;57.150;-2.134;2023-09-18T01:35:47;2.22;;;0.80;;
23628;SDS011;11991;57.150;-2.134;2023-09-18T01:38:14;1.23;;;0.90;;
23628;SDS011;11991;57.150;-2.134;2023-09-18T01:40:41;1.67;;;0.93;;
23628;SDS011;11991;57.150;-2.134;2023-09-18T01:43:09;2.05;;;0.80;;
23628;SDS011;11991;57.150;-2.134;2023-09-18T01:45:36;1.52;;;0.90;;
23628;SDS011;11991;57.150;-2.134;2023-09-18T01:48:04;1.77;;;0.98;;
23628;SDS011;11991;57.150;-2.134;2023-09-18T01:50:32;1.77;;;0.82;;
23628;SDS011;11991;57.150;-2.134;2023-09-18T01:53:00;1.50;;;1.00;;
23628;SDS011;11991;57.150;-2.134;2023-09-18T01:55:27;1.60;;;0.80;;
23628;SDS011;11991;57.150;-2.134;2023-09-18T01:57:55;0.98;;;0.73;;
23628;SDS011;11991;57.150;-2.134;2023-09-18T02:00:23;2.55;;;1.00;;
23628;SDS011;11991;57.150;-2.134;2023-09-18T02:02:52;4.78;;;1.60;;
23628;SDS011;11991;57.150;-2.134;2023-09-18T02:05:39;1.75;;;1.00;;
23628;SDS011;11991;57.150;-2.134;2023-09-18T02:08:08;2.10;;;1.00;;
23628;SDS011;11991;57.150;-2.134;2023-09-18T02:10:35;1.23;;;0.82;;
23628;SDS011;11991;57.150;-2.134;2023-09-18T02:13:02;3.67;;;1.27;;
23628;SDS011;11991;57.150;-2.134;2023-09-18T02:15:30;2.03;;;1.17;;
23628;SDS011;11991;57.150;-2.134;2023-09-18T02:17:59;2.47;;;1.02;;
23628;SDS011;11991;57.150;-2.134;2023-09-18T02:20:26;0.90;;;0.88;;
23628;SDS011;11991;57.150;-2.134;2023-09-18T02:22:53;2.00;;;1.10;;
23628;SDS011;11991;57.150;-2.134;2023-09-18T02:25:21;2.00;;;0.85;;
23628;SDS011;11991;57.150;-2.134;2023-09-18T02:27:48;1.73;;;0.95;;
23628;SDS011;11991;57.150;-2.134;2023-09-18T02:30:16;1.70;;;0.93;;
23628;SDS011;11991;57.150;-2.134;2023-09-18T02:32:45;2.13;;;0.70;;
23628;SDS011;11991;57.150;-2.134;2023-09-18T02:35:12;2.50;;;1.38;;
23628;SDS011;11991;57.150;-2.134;2023-09-18T02:37:40;1.50;;;0.93;;
23628;SDS011;11991;57.150;-2.134;2023-09-18T02:40:07;2.45;;;1.40;;
23628;SDS011;11991;57.150;-2.134;2023-09-18T02:42:34;2.13;;;1.15;;
23628;SDS011;11991;57.150;-2.134;2023-09-18T02:45:02;1.92;;;1.17;;
23628;SDS011;11991;57.150;-2.134;2023-09-18T02:47:29;1.98;;;1.00;;
23628;SDS011;11991;57.150;-2.134;2023-09-18T02:49:56;1.70;;;0.93;;
23628;SDS011;11991;57.150;-2.134;2023-09-18T02:52:23;2.60;;;1.33;;
23628;SDS011;11991;57.150;-2.134;2023-09-18T02:54:51;3.25;;;1.50;;
23628;SDS011;11991;57.150;-2.134;2023-09-18T02:57:18;2.40;;;1.02;;
23628;SDS011;11991;57.150;-2.134;2023-09-18T02:59:45;2.03;;;1.00;;
23628;SDS011;11991;57.150;-2.134;2023-09-18T03:02:13;1.70;;;1.00;;
23628;SDS011;11991;57.150;-2.134;2023-09-18T03:04:40;2.13;;;1.20;;
23628;SDS011;11991;57.150;-2.134;2023-09-18T03:07:07;1.55;;;1.00;;
23628;SDS011;11991;57.150;-2.134;2023-09-18T03:09:34;2.85;;;0.95;;
23628;SDS011;11991;57.150;-2.134;2023-09-18T03:12:02;1.40;;;1.00;;
23628;SDS011;11991;57.150;-2.134;2023-09-18T03:14:30;1.25;;;1.00;;
23628;SDS011;11991;57.150;-2.134;2023-09-18T03:16:57;1.20;;;1.10;;
23628;SDS011;11991;57.150;-2.134;2023-09-18T03:19:24;0.80;;;0.80;;
23628;SDS011;11991;57.150;-2.134;2023-09-18T03:21:51;2.03;;;1.02;;
23628;SDS011;11991;57.150;-2.134;2023-09-18T03:24:18;1.65;;;1.20;;
23628;SDS011;11991;57.150;-2.134;2023-09-18T03:26:45;1.90;;;1.15;;
23628;SDS011;11991;57.150;-2.134;2023-09-18T03:29:13;1.95;;;0.80;;
23628;SDS011;11991;57.150;-2.134;2023-09-18T03:31:40;2.00;;;1.30;;
23628;SDS011;11991;57.150;-2.134;2023-09-18T03:34:07;2.58;;;1.13;;
23628;SDS011;11991;57.150;-2.134;2023-09-18T03:36:34;1.98;;;0.90;;
23628;SDS011;11991;57.150;-2.134;2023-09-18T03:39:02;2.25;;;1.38;;
23628;SDS011;11991;57.150;-2.134;2023-09-18T03:41:31;1.42;;;0.90;;
23628;SDS011;11991;57.150;-2.134;2023-09-18T03:44:02;1.58;;;1.08;;
23628;SDS011;11991;57.150;-2.134;2023-09-18T03:46:29;1.80;;;1.23;;
23628;SDS011;11991;57.150;-2.134;2023-09-18T03:48:57;2.97;;;1.05;;
23628;SDS011;11991;57.150;-2.134;2023-09-18T03:51:24;2.17;;;1.10;;
23628;SDS011;11991;57.150;-2.134;2023-09-18T03:53:51;2.55;;;1.15;;
23628;SDS011;11991;57.150;-2.134;2023-09-18T03:56:19;3.13;;;1.42;;
23628;SDS011;11991;57.150;-2.134;2023-09-18T03:58:46;2.30;;;1.25;;
23628;SDS011;11991;57.150;-2.134;2023-09-18T04:01:16;2.22;;;1.23;;
23628;SDS011;11991;57.150;-2.134;2023-09-18T04:03:43;1.73;;;1.00;;
23628;SDS011;11991;57.150;-2.134;2023-09-18T04:06:10;2.67;;;1.30;;
23628;SDS011;11991;57.150;-2.134;2023-09-18T04:08:37;2.40;;;1.20;;
23628;SDS011;11991;57.150;-2.134;2023-09-18T04:11:04;2.97;;;1.27;;
23628;SDS011;11991;57.150;-2.134;2023-09-18T04:13:36;3.30;;;1.33;;
23628;SDS011;11991;57.150;-2.134;2023-09-18T04:16:04;2.15;;;1.17;;
23628;SDS011;11991;57.150;-2.134;2023-09-18T04:18:32;1.83;;;1.40;;
23628;SDS011;11991;57.150;-2.134;2023-09-18T04:20:59;1.50;;;1.40;;
23628;SDS011;11991;57.150;-2.134;2023-09-18T04:23:27;3.38;;;1.42;;
23628;SDS011;11991;57.150;-2.134;2023-09-18T04:25:54;2.78;;;1.35;;
23628;SDS011;11991;57.150;-2.134;2023-09-18T04:28:21;2.08;;;1.45;;
23628;SDS011;11991;57.150;-2.134;2023-09-18T04:30:49;3.78;;;1.42;;
23628;SDS011;11991;57.150;-2.134;2023-09-18T04:33:17;2.17;;;1.25;;
23628;SDS011;11991;57.150;-2.134;2023-09-18T04:35:46;1.45;;;1.10;;
23628;SDS011;11991;57.150;-2.134;2023-09-18T04:38:13;3.92;;;1.58;;
23628;SDS011;11991;57.150;-2.134;2023-09-18T04:40:46;2.00;;;1.00;;
23628;SDS011;11991;57.150;-2.134;2023-09-18T04:43:13;3.88;;;1.98;;
23628;SDS011;11991;57.150;-2.134;2023-09-18T04:45:40;3.58;;;1.45;;
23628;SDS011;11991;57.150;-2.134;2023-09-18T04:48:09;1.20;;;1.08;;
23628;SDS011;11991;57.150;-2.134;2023-09-18T04:50:37;3.08;;;1.88;;
23628;SDS011;11991;57.150;-2.134;2023-09-18T04:53:04;4.60;;;1.60;;
23628;SDS011;11991;57.150;-2.134;2023-09-18T04:55:31;2.33;;;1.48;;
23628;SDS011;11991;57.150;-2.134;2023-09-18T04:57:58;2.95;;;1.40;;
23628;SDS011;11991;57.150;-2.134;2023-09-18T05:00:26;2.97;;;1.70;;
23628;SDS011;11991;57.150;-2.134;2023-09-18T05:02:55;2.08;;;1.42;;
23628;SDS011;11991;57.150;-2.134;2023-09-18T05:05:23;2.90;;;1.27;;
23628;SDS011;11991;57.150;-2.134;2023-09-18T05:07:50;1.55;;;1.45;;
23628;SDS011;11991;57.150;-2.134;2023-09-18T05:10:17;2.42;;;1.48;;
23628;SDS011;11991;57.150;-2.134;2023-09-18T05:12:45;1.30;;;1.20;;
23628;SDS011;11991;57.150;-2.134;2023-09-18T05:15:12;1.55;;;1.15;;
23628;SDS011;11991;57.150;-2.134;2023-09-18T05:17:40;2.22;;;1.30;;
23628;SDS011;11991;57.150;-2.134;2023-09-18T05:20:11;1.25;;;1.13;;
23628;SDS011;11991;57.150;-2.134;2023-09-18T05:22:40;5.13;;;2.13;;
23628;SDS011;11991;57.150;-2.134;2023-09-18T05:25:09;2.85;;;1.75;;
23628;SDS011;11991;57.150;-2.134;2023-09-18T05:27:37;3.70;;;1.40;;
23628;SDS011;11991;57.150;-2.134;2023-09-18T05:30:11;2.53;;;1.50;;
23628;SDS011;11991;57.150;-2.134;2023-09-18T05:32:43;2.22;;;1.55;;
23628;SDS011;11991;57.150;-2.134;2023-09-18T05:35:11;1.30;;;1.05;;
23628;SDS011;11991;57.150;-2.134;2023-09-18T05:37:40;1.88;;;1.40;;
23628;SDS011;11991;57.150;-2.134;2023-09-18T05:40:09;4.05;;;1.92;;
23628;SDS011;11991;57.150;-2.134;2023-09-18T05:42:41;4.45;;;2.03;;
23628;SDS011;11991;57.150;-2.134;2023-09-18T05:45:12;1.35;;;1.20;;
23628;SDS011;11991;57.150;-2.134;2023-09-18T05:47:41;3.45;;;1.40;;
23628;SDS011;11991;57.150;-2.134;2023-09-18T05:50:10;1.73;;;1.33;;
23628;SDS011;11991;57.150;-2.134;2023-09-18T05:52:44;1.30;;;1.20;;
23628;SDS011;11991;57.150;-2.134;2023-09-18T05:55:18;3.72;;;1.83;;
23628;SDS011;11991;57.150;-2.134;2023-09-18T05:57:45;3.67;;;2.03;;
23628;SDS011;11991;57.150;-2.134;2023-09-18T06:00:12;4.63;;;2.10;;
23628;SDS011;11991;57.150;-2.134;2023-09-18T06:02:42;4.18;;;1.67;;
23628;SDS011;11991;57.150;-2.134;2023-09-18T06:05:10;2.47;;;1.35;;
23628;SDS011;11991;57.150;-2.134;2023-09-18T06:07:42;3.03;;;1.83;;
23628;SDS011;11991;57.150;-2.134;2023-09-18T06:10:11;3.30;;;1.67;;
23628;SDS011;11991;57.150;-2.134;2023-09-18T06:12:38;2.00;;;1.42;;
23628;SDS011;11991;57.150;-2.134;2023-09-18T06:15:07;4.88;;;2.28;;
23628;SDS011;11991;57.150;-2.134;2023-09-18T06:17:41;4.20;;;1.98;;
23628;SDS011;11991;57.150;-2.134;2023-09-18T06:20:10;4.93;;;2.78;;
23628;SDS011;11991;57.150;-2.134;2023-09-18T06:22:42;5.63;;;2.65;;
23628;SDS011;11991;57.150;-2.134;2023-09-18T06:25:09;2.65;;;1.60;;
23628;SDS011;11991;57.150;-2.134;2023-09-18T06:27:37;2.65;;;1.73;;
23628;SDS011;11991;57.150;-2.134;2023-09-18T06:30:05;4.30;;;2.20;;
23628;SDS011;11991;57.150;-2.134;2023-09-18T06:32:33;6.43;;;2.40;;
23628;SDS011;11991;57.150;-2.134;2023-09-18T06:35:00;3.05;;;1.83;;
23628;SDS011;11991;57.150;-2.134;2023-09-18T06:37:28;4.95;;;3.05;;
23628;SDS011;11991;57.150;-2.134;2023-09-18T06:39:55;3.78;;;2.25;;
23628;SDS011;11991;57.150;-2.134;2023-09-18T06:42:25;4.28;;;2.33;;
23628;SDS011;11991;57.150;-2.134;2023-09-18T06:44:56;3.28;;;2.08;;
23628;SDS011;11991;57.150;-2.134;2023-09-18T06:47:23;4.25;;;2.47;;
23628;SDS011;11991;57.150;-2.134;2023-09-18T06:49:51;2.50;;;2.05;;
23628;SDS011;11991;57.150;-2.134;2023-09-18T06:52:18;5.40;;;2.70;;
23628;SDS011;11991;57.150;-2.134;2023-09-18T06:54:45;4.03;;;2.13;;
23628;SDS011;11991;57.150;-2.134;2023-09-18T06:57:12;4.25;;;2.05;;
23628;SDS011;11991;57.150;-2.134;2023-09-18T06:59:39;2.47;;;1.50;;
23628;SDS011;11991;57.150;-2.134;2023-09-18T07:02:06;2.53;;;1.98;;
23628;SDS011;11991;57.150;-2.134;2023-09-18T07:04:34;2.40;;;2.03;;
23628;SDS011;11991;57.150;-2.134;2023-09-18T07:07:01;4.43;;;2.38;;
23628;SDS011;11991;57.150;-2.134;2023-09-18T07:09:28;4.00;;;2.53;;
23628;SDS011;11991;57.150;-2.134;2023-09-18T07:11:55;6.43;;;3.20;;
23628;SDS011;11991;57.150;-2.134;2023-09-18T07:14:22;3.15;;;2.28;;
23628;SDS011;11991;57.150;-2.134;2023-09-18T07:16:50;3.67;;;2.17;;
23628;SDS011;11991;57.150;-2.134;2023-09-18T07:19:17;3.83;;;2.83;;
23628;SDS011;11991;57.150;-2.134;2023-09-18T07:21:44;3.22;;;2.28;;
23628;SDS011;11991;57.150;-2.134;2023-09-18T07:24:11;6.05;;;2.83;;
23628;SDS011;11991;57.150;-2.134;2023-09-18T07:26:47;3.03;;;2.63;;
23628;SDS011;11991;57.150;-2.134;2023-09-18T07:29:15;3.67;;;2.40;;
23628;SDS011;11991;57.150;-2.134;2023-09-18T07:31:43;5.25;;;2.83;;
23628;SDS011;11991;57.150;-2.134;2023-09-18T07:34:10;2.60;;;2.10;;
23628;SDS011;11991;57.150;-2.134;2023-09-18T07:36:40;3.20;;;2.45;;
23628;SDS011;11991;57.150;-2.134;2023-09-18T07:39:07;10.00;;;5.85;;
23628;SDS011;11991;57.150;-2.134;2023-09-18T07:41:34;4.05;;;3.35;;
23628;SDS011;11991;57.150;-2.134;2023-09-18T07:44:01;6.50;;;3.65;;
23628;SDS011;11991;57.150;-2.134;2023-09-18T07:46:28;5.97;;;3.83;;
23628;SDS011;11991;57.150;-2.134;2023-09-18T07:48:56;4.15;;;2.35;;
23628;SDS011;11991;57.150;-2.134;2023-09-18T07:51:25;6.32;;;3.65;;
23628;SDS011;11991;57.150;-2.134;2023-09-18T07:53:52;4.60;;;3.85;;
23628;SDS011;11991;57.150;-2.134;2023-09-18T07:56:19;5.53;;;3.50;;
23628;SDS011;11991;57.150;-2.134;2023-09-18T07:58:46;3.17;;;1.90;;
23628;SDS011;11991;57.150;-2.134;2023-09-18T08:01:14;2.25;;;1.83;;
23628;SDS011;11991;57.150;-2.134;2023-09-18T08:03:43;2.30;;;2.10;;
23628;SDS011;11991;57.150;-2.134;2023-09-18T08:06:11;2.28;;;2.08;;
23628;SDS011;11991;57.150;-2.134;2023-09-18T08:08:39;3.33;;;2.45;;
23628;SDS011;11991;57.150;-2.134;2023-09-18T08:11:07;6.57;;;4.72;;
23628;SDS011;11991;57.150;-2.134;2023-09-18T08:13:35;5.93;;;4.07;;
23628;SDS011;11991;57.150;-2.134;2023-09-18T08:16:05;5.80;;;3.97;;
23628;SDS011;11991;57.150;-2.134;2023-09-18T08:18:33;7.47;;;5.25;;
23628;SDS011;11991;57.150;-2.134;2023-09-18T08:21:01;4.28;;;2.90;;
23628;SDS011;11991;57.150;-2.134;2023-09-18T08:23:28;4.55;;;3.22;;
23628;SDS011;11991;57.150;-2.134;2023-09-18T08:25:56;5.88;;;3.08;;
23628;SDS011;11991;57.150;-2.134;2023-09-18T08:28:24;3.97;;;3.10;;
23628;SDS011;11991;57.150;-2.134;2023-09-18T08:30:51;3.85;;;2.42;;
23628;SDS011;11991;57.150;-2.134;2023-09-18T08:33:18;7.93;;;5.05;;
23628;SDS011;11991;57.150;-2.134;2023-09-18T08:35:47;6.78;;;4.15;;
23628;SDS011;11991;57.150;-2.134;2023-09-18T08:38:16;3.95;;;2.88;;
23628;SDS011;11991;57.150;-2.134;2023-09-18T08:40:43;5.78;;;3.67;;
23628;SDS011;11991;57.150;-2.134;2023-09-18T08:43:12;4.55;;;2.97;;
23628;SDS011;11991;57.150;-2.134;2023-09-18T08:45:52;2.53;;;2.30;;
23628;SDS011;11991;57.150;-2.134;2023-09-18T08:48:23;3.10;;;2.47;;
23628;SDS011;11991;57.150;-2.134;2023-09-18T08:50:50;4.57;;;3.30;;
23628;SDS011;11991;57.150;-2.134;2023-09-18T08:53:18;3.42;;;2.65;;
23628;SDS011;11991;57.150;-2.134;2023-09-18T08:55:45;3.92;;;2.88;;
23628;SDS011;11991;57.150;-2.134;2023-09-18T08:58:12;4.20;;;3.78;;
23628;SDS011;11991;57.150;-2.134;2023-09-18T09:00:40;3.60;;;3.28;;
23628;SDS011;11991;57.150;-2.134;2023-09-18T09:03:08;3.03;;;2.50;;
23628;SDS011;11991;57.150;-2.134;2023-09-18T09:05:36;4.90;;;3.67;;
23628;SDS011;11991;57.150;-2.134;2023-09-18T09:08:03;4.45;;;3.17;;
23628;SDS011;11991;57.150;-2.134;2023-09-18T09:10:31;4.75;;;3.42;;
23628;SDS011;11991;57.150;-2.134;2023-09-18T09:12:58;3.17;;;2.60;;
23628;SDS011;11991;57.150;-2.134;2023-09-18T09:15:28;5.25;;;3.00;;
23628;SDS011;11991;57.150;-2.134;2023-09-18T09:18:02;2.30;;;2.00;;
23628;SDS011;11991;57.150;-2.134;2023-09-18T09:20:35;2.45;;;2.08;;
23628;SDS011;11991;57.150;-2.134;2023-09-18T09:23:03;5.15;;;3.35;;
23628;SDS011;11991;57.150;-2.134;2023-09-18T09:25:33;2.97;;;2.63;;
23628;SDS011;11991;57.150;-2.134;2023-09-18T09:28:02;6.85;;;4.22;;
23628;SDS011;11991;57.150;-2.134;2023-09-18T09:30:35;6.30;;;4.78;;
23628;SDS011;11991;57.150;-2.134;2023-09-18T09:33:03;8.00;;;5.78;;
23628;SDS011;11991;57.150;-2.134;2023-09-18T09:35:33;5.28;;;3.38;;
23628;SDS011;11991;57.150;-2.134;2023-09-18T09:38:06;5.68;;;4.15;;
23628;SDS011;11991;57.150;-2.134;2023-09-18T09:40:35;5.60;;;4.32;;
23628;SDS011;11991;57.150;-2.134;2023-09-18T09:43:08;6.25;;;3.42;;
23628;SDS011;11991;57.150;-2.134;2023-09-18T09:45:36;6.55;;;4.43;;
23628;SDS011;11991;57.150;-2.134;2023-09-18T09:48:04;2.47;;;2.15;;
23628;SDS011;11991;57.150;-2.134;2023-09-18T09:50:34;7.05;;;3.60;;
23628;SDS011;11991;57.150;-2.134;2023-09-18T09:53:13;4.90;;;3.40;;
23628;SDS011;11991;57.150;-2.134;2023-09-18T09:55:41;3.20;;;2.72;;
23628;SDS011;11991;57.150;-2.134;2023-09-18T09:58:08;7.20;;;5.20;;
23628;SDS011;11991;57.150;-2.134;2023-09-18T10:00:49;6.70;;;4.18;;
23628;SDS011;11991;57.150;-2.134;2023-09-18T10:03:21;3.08;;;2.55;;
23628;SDS011;11991;57.150;-2.134;2023-09-18T10:05:50;4.57;;;3.38;;
23628;SDS011;11991;57.150;-2.134;2023-09-18T10:08:24;3.65;;;2.40;;
23628;SDS011;11991;57.150;-2.134;2023-09-18T10:10:55;4.28;;;3.17;;
23628;SDS011;11991;57.150;-2.134;2023-09-18T10:16:18;3.75;;;2.58;;
23628;SDS011;11991;57.150;-2.134;2023-09-18T10:22:01;5.15;;;3.10;;
23628;SDS011;11991;57.150;-2.134;2023-09-18T10:24:37;5.75;;;3.63;;
23628;SDS011;11991;57.150;-2.134;2023-09-18T10:27:11;4.32;;;2.72;;
23628;SDS011;11991;57.150;-2.134;2023-09-18T10:29:40;3.38;;;2.42;;
23628;SDS011;11991;57.150;-2.134;2023-09-18T10:32:08;1.77;;;1.60;;
23628;SDS011;11991;57.150;-2.134;2023-09-18T10:34:35;2.50;;;2.08;;
23628;SDS011;11991;57.150;-2.134;2023-09-18T10:37:03;2.15;;;1.90;;
23628;SDS011;11991;57.150;-2.134;2023-09-18T10:39:37;3.30;;;2.20;;
23628;SDS011;11991;57.150;-2.134;2023-09-18T10:42:07;2.20;;;1.45;;
23628;SDS011;11991;57.150;-2.134;2023-09-18T10:44:35;2.30;;;1.27;;
23628;SDS011;11991;57.150;-2.134;2023-09-18T10:47:07;1.20;;;1.10;;
23628;SDS011;11991;57.150;-2.134;2023-09-18T10:49:36;1.10;;;0.95;;
23628;SDS011;11991;57.150;-2.134;2023-09-18T10:52:04;1.10;;;1.00;;
23628;SDS011;11991;57.150;-2.134;2023-09-18T10:54:31;1.30;;;1.20;;
23628;SDS011;11991;57.150;-2.134;2023-09-18T10:57:00;1.08;;;0.75;;
23628;SDS011;11991;57.150;-2.134;2023-09-18T10:59:28;1.17;;;0.90;;
23628;SDS011;11991;57.150;-2.134;2023-09-18T11:02:02;1.52;;;0.80;;
23628;SDS011;11991;57.150;-2.134;2023-09-18T11:04:32;0.70;;;0.70;;
23628;SDS011;11991;57.150;-2.134;2023-09-18T11:09:26;0.63;;;0.63;;
23628;SDS011;11991;57.150;-2.134;2023-09-18T11:14:42;0.88;;;0.65;;
23628;SDS011;11991;57.150;-2.134;2023-09-18T11:28:15;0.77;;;0.30;;
23628;SDS011;11991;57.150;-2.134;2023-09-18T11:30:53;0.93;;;0.32;;
23628;SDS011;11991;57.150;-2.134;2023-09-18T11:36:08;0.30;;;0.30;;
23628;SDS011;11991;57.150;-2.134;2023-09-18T11:38:52;0.30;;;0.30;;
23628;SDS011;11991;57.150;-2.134;2023-09-18T11:41:24;0.38;;;0.30;;
23628;SDS011;11991;57.150;-2.134;2023-09-18T11:43:52;0.30;;;0.30;;
23628;SDS011;11991;57.150;-2.134;2023-09-18T11:46:46;0.40;;;0.40;;
23628;SDS011;11991;57.150;-2.134;2023-09-18T11:49:21;0.38;;;0.38;;
23628;SDS011;11991;57.150;-2.134;2023-09-18T11:51:50;0.30;;;0.30;;
23628;SDS011;11991;57.150;-2.134;2023-09-18T11:54:17;0.30;;;0.30;;
23628;SDS011;11991;57.150;-2.134;2023-09-18T11:56:45;1.15;;;0.50;;
23628;SDS011;11991;57.150;-2.134;2023-09-18T11:59:12;0.75;;;0.68;;
23628;SDS011;11991;57.150;-2.134;2023-09-18T12:01:40;0.55;;;0.55;;
23628;SDS011;11991;57.150;-2.134;2023-09-18T12:04:07;0.50;;;0.50;;
23628;SDS011;11991;57.150;-2.134;2023-09-18T12:06:35;0.50;;;0.50;;
23628;SDS011;11991;57.150;-2.134;2023-09-18T12:09:03;0.60;;;0.60;;
23628;SDS011;11991;57.150;-2.134;2023-09-18T12:11:30;0.70;;;0.70;;
23628;SDS011;11991;57.150;-2.134;2023-09-18T12:14:01;0.60;;;0.60;;
23628;SDS011;11991;57.150;-2.134;2023-09-18T12:16:31;0.68;;;0.60;;
23628;SDS011;11991;57.150;-2.134;2023-09-18T12:19:07;0.60;;;0.60;;
23628;SDS011;11991;57.150;-2.134;2023-09-18T12:21:41;0.98;;;0.88;;
23628;SDS011;11991;57.150;-2.134;2023-09-18T12:24:20;0.40;;;0.40;;
23628;SDS011;11991;57.150;-2.134;2023-09-18T12:26:49;0.47;;;0.47;;
23628;SDS011;11991;57.150;-2.134;2023-09-18T12:29:17;0.45;;;0.45;;
23628;SDS011;11991;57.150;-2.134;2023-09-18T12:31:44;0.75;;;0.60;;
23628;SDS011;11991;57.150;-2.134;2023-09-18T12:34:18;0.50;;;0.50;;
23628;SDS011;11991;57.150;-2.134;2023-09-18T12:36:48;0.60;;;0.60;;
23628;SDS011;11991;57.150;-2.134;2023-09-18T12:39:17;0.60;;;0.60;;
23628;SDS011;11991;57.150;-2.134;2023-09-18T12:41:47;0.75;;;0.70;;
23628;SDS011;11991;57.150;-2.134;2023-09-18T12:44:16;0.60;;;0.50;;
23628;SDS011;11991;57.150;-2.134;2023-09-18T12:46:43;0.70;;;0.60;;
23628;SDS011;11991;57.150;-2.134;2023-09-18T12:49:17;0.70;;;0.60;;
23628;SDS011;11991;57.150;-2.134;2023-09-18T12:51:54;0.65;;;0.65;;
23628;SDS011;11991;57.150;-2.134;2023-09-18T12:54:39;1.13;;;0.60;;
23628;SDS011;11991;57.150;-2.134;2023-09-18T12:57:08;0.40;;;0.40;;
23628;SDS011;11991;57.150;-2.134;2023-09-18T12:59:37;1.13;;;0.80;;
23628;SDS011;11991;57.150;-2.134;2023-09-18T13:02:05;0.45;;;0.45;;
23628;SDS011;11991;57.150;-2.134;2023-09-18T13:04:34;0.50;;;0.43;;
23628;SDS011;11991;57.150;-2.134;2023-09-18T13:07:11;0.50;;;0.50;;
23628;SDS011;11991;57.150;-2.134;2023-09-18T13:09:40;0.40;;;0.40;;
23628;SDS011;11991;57.150;-2.134;2023-09-18T13:12:08;1.05;;;0.70;;
23628;SDS011;11991;57.150;-2.134;2023-09-18T13:17:52;1.13;;;0.65;;
23628;SDS011;11991;57.150;-2.134;2023-09-18T13:20:24;0.57;;;0.50;;
23628;SDS011;11991;57.150;-2.134;2023-09-18T13:22:57;0.40;;;0.40;;
23628;SDS011;11991;57.150;-2.134;2023-09-18T13:25:38;0.60;;;0.52;;
23628;SDS011;11991;57.150;-2.134;2023-09-18T13:28:09;0.77;;;0.52;;
23628;SDS011;11991;57.150;-2.134;2023-09-18T13:30:37;1.15;;;0.70;;
23628;SDS011;11991;57.150;-2.134;2023-09-18T13:33:07;1.02;;;0.77;;
23628;SDS011;11991;57.150;-2.134;2023-09-18T13:35:40;0.47;;;0.45;;
23628;SDS011;11991;57.150;-2.134;2023-09-18T13:38:08;0.82;;;0.70;;
23628;SDS011;11991;57.150;-2.134;2023-09-18T13:40:41;0.70;;;0.60;;
23628;SDS011;11991;57.150;-2.134;2023-09-18T13:43:09;0.82;;;0.70;;
23628;SDS011;11991;57.150;-2.134;2023-09-18T13:45:36;0.63;;;0.63;;
23628;SDS011;11991;57.150;-2.134;2023-09-18T13:48:05;1.58;;;1.20;;
23628;SDS011;11991;57.150;-2.134;2023-09-18T13:50:33;0.90;;;0.70;;
23628;SDS011;11991;57.150;-2.134;2023-09-18T13:53:02;0.85;;;0.60;;
23628;SDS011;11991;57.150;-2.134;2023-09-18T13:55:32;0.60;;;0.60;;
23628;SDS011;11991;57.150;-2.134;2023-09-18T13:58:00;1.15;;;0.93;;
23628;SDS011;11991;57.150;-2.134;2023-09-18T14:00:30;1.90;;;0.60;;
23628;SDS011;11991;57.150;-2.134;2023-09-18T14:02:58;1.13;;;0.73;;
23628;SDS011;11991;57.150;-2.134;2023-09-18T14:05:26;1.10;;;0.70;;
23628;SDS011;11991;57.150;-2.134;2023-09-18T14:07:55;0.80;;;0.77;;
23628;SDS011;11991;57.150;-2.134;2023-09-18T14:10:27;0.55;;;0.55;;
23628;SDS011;11991;57.150;-2.134;2023-09-18T14:12:54;1.33;;;0.90;;
23628;SDS011;11991;57.150;-2.134;2023-09-18T14:15:24;0.80;;;0.57;;
23628;SDS011;11991;57.150;-2.134;2023-09-18T14:17:51;0.88;;;0.70;;
23628;SDS011;11991;57.150;-2.134;2023-09-18T14:20:18;0.80;;;0.60;;
23628;SDS011;11991;57.150;-2.134;2023-09-18T14:22:46;1.25;;;0.77;;
23628;SDS011;11991;57.150;-2.134;2023-09-18T14:25:16;0.50;;;0.50;;
23628;SDS011;11991;57.150;-2.134;2023-09-18T14:27:47;0.88;;;0.50;;
23628;SDS011;11991;57.150;-2.134;2023-09-18T14:30:14;0.60;;;0.60;;
23628;SDS011;11991;57.150;-2.134;2023-09-18T14:32:41;0.80;;;0.70;;
23628;SDS011;11991;57.150;-2.134;2023-09-18T14:35:09;1.10;;;0.80;;
23628;SDS011;11991;57.150;-2.134;2023-09-18T14:37:37;0.50;;;0.50;;
23628;SDS011;11991;57.150;-2.134;2023-09-18T14:40:05;0.60;;;0.60;;
23628;SDS011;11991;57.150;-2.134;2023-09-18T14:42:39;1.40;;;0.63;;
23628;SDS011;11991;57.150;-2.134;2023-09-18T14:45:06;0.77;;;0.50;;
23628;SDS011;11991;57.150;-2.134;2023-09-18T14:47:33;0.40;;;0.40;;
23628;SDS011;11991;57.150;-2.134;2023-09-18T14:50:01;0.55;;;0.50;;
23628;SDS011;11991;57.150;-2.134;2023-09-18T14:52:28;0.47;;;0.47;;
23628;SDS011;11991;57.150;-2.134;2023-09-18T14:54:56;2.35;;;0.70;;
23628;SDS011;11991;57.150;-2.134;2023-09-18T14:57:23;0.68;;;0.63;;
23628;SDS011;11991;57.150;-2.134;2023-09-18T14:59:51;0.57;;;0.50;;
23628;SDS011;11991;57.150;-2.134;2023-09-18T15:02:18;1.20;;;0.77;;
23628;SDS011;11991;57.150;-2.134;2023-09-18T15:04:45;0.60;;;0.60;;
23628;SDS011;11991;57.150;-2.134;2023-09-18T15:07:14;1.27;;;0.80;;
23628;SDS011;11991;57.150;-2.134;2023-09-18T15:09:41;2.30;;;1.00;;
23628;SDS011;11991;57.150;-2.134;2023-09-18T15:12:08;1.48;;;0.60;;
23628;SDS011;11991;57.150;-2.134;2023-09-18T15:14:38;0.70;;;0.50;;